Airfield :
LOGIN :

Register | Disclaimer

   EN    FR    IT 

 










Legend :    VFR   Marginal VFR   IFR   Intensive IFR   Very Intensive IFR
Visi :
Ceiling :
>= 8 km
>= 3000ft
5 to 8 km
1000 to 3000 ft
1500m to 5 km
500 to 1000 ft
800 to 1500m
200 to 500 ft
< 800m
< 200 ft
Symbols :   Thunderstorms  Fog  Heavy snow  Heavy precipitations  Wind > 20 kt
SIGMETs :     Misc.  Thunderstorms  Icing  Turbulence  Mountain Waves  Volcanic Ashes







- Airport Elevation : 348 ft
- IATA code : STN
- Download approach charts


EGSS - London Stansted

CURRENT METAR :
  • 160220Z AUTO 31002KT 9999 SCT026 15/14 Q1021

EXPIRED METARs :
  • 160150Z AUTO 28002KT 9999 -RA SCT038 15/14 Q1021
  • 160120Z AUTO VRB02KT 9999 -RA NCD 16/14 Q1022
  • 160050Z AUTO 23001KT 9999 FEW039 15/14 Q1022
  • 160020Z AUTO 32002KT 9999 BKN039 16/14 Q1022
  • 152350Z AUTO 32001KT 9999 BKN035 16/14 Q1022

TAF TAF EGSS
Valid from the 16 at 00:00 until the 17 at 06:00 UTC


152257Z 1600/1706 35005KT 9999 SCT035
PROB30
TEMPO 1602/1608 9000 BKN009
BECMG 1608/1611 OVC007
TEMPO 1608/1620 4000 -RADZ BR OVC003
BECMG 1620/1623 9000 FEW015
BECMG 1700/1703 3000 BR
PROB30 1702/1706 0200 FG BKN000
ATIS : +44 1279 669 325
No reported NOTAMs for that airfield.



MET'MAP, your aeronautical weather chart ! - Copyright ORBIFLY December 2007 - Disclaimer

ORBIFLY MET'MAP TEAM :

Programming & Development : Alexandra Zaïnal
Concept & Development : Baudouin d'Aumeries
Co-Development & Prog : Marc-Olivier Méhu
Technical & hardware support : Manuel Goepfert

Contact : metmap@orbifly.com




SOURCES & CREDITS :

   NOAA